Time;durP1;ratioP1;P1;durP2;ratioP2;P2;SDS_P1;SDS_P2;PMS_P1;PMS_P2;Temp;Humidity;BMP_temperature;BMP_pressure;BME280_temperature;BME280_humidity;BME280_pressure;Samples;Min_cycle;Max_cycle;Signal;HPM_P1;HPM_P2
2022/06/14 00:02:24;;;;;;;;;;;;;;;;;;5068378;28;19915;-57
2022/06/14 00:04:56;;;;;;;;;;;;;;;;;;5068544;28;19909;-58
2022/06/14 00:07:35;;;;;;;;;;;;;;;;;;5065952;28;19963;-56
2022/06/14 00:10:13;;;;;;;;;;;;;;;;;;5068558;28;20316;-57
2022/06/14 00:12:40;;;;;;;;;;;;;;;;;;5072517;28;19908;-56
2022/06/14 00:15:21;;;;;;;;;;;;;;;;;;5091040;28;19908;-58
2022/06/14 00:17:47;;;;;;;;;;;;;;;;;;5090784;28;19908;-57
2022/06/14 00:20:26;;;;;;;;;;;;;;;;;;5089221;28;19936;-57
2022/06/14 00:25:53;;;;;;;;;;;;;;;;;;5068212;28;19913;-58
2022/06/14 00:28:38;;;;;;;;;;;;;;;;;;5071505;28;19909;-58
2022/06/14 00:33:57;;;;;;;;;;;;;;;;;;5081984;28;19908;-57
2022/06/14 00:39:10;;;;;;;;;;;;;;;;;;5089973;28;19917;-57
2022/06/14 00:41:39;;;;;;;;;;;;;;;;;;5087495;28;19919;-57
2022/06/14 00:44:05;;;;;;;;;;;;;;;;;;5090870;28;19940;-58
2022/06/14 00:49:23;;;;;;;;;;;;;;;;;;5090151;28;20289;-58
2022/06/14 00:51:56;;;;;;;;;;;;;;;;;;5090182;28;19908;-57
2022/06/14 00:54:35;;;;;;;;;;;;;;;;;;;;;
2022/06/14 00:59:48;;;;;;;;;;;;;;;;;;5089855;28;19934;-57
2022/06/14 01:02:21;;;;;;;;;;;;;;;;;;5089508;28;19930;-56
2022/06/14 01:04:47;;;;;;;;;;;;;;;;;;5088360;28;19916;-57
2022/06/14 01:07:21;;;;;;;;;;;;;;;;;;5088080;28;19912;-57
2022/06/14 01:09:57;;;;;;;;;;;;;;;;;;5088377;28;19916;-59
2022/06/14 01:18:25;;;;;;;;;;;;;;;;;;5081204;28;19944;-58
2022/06/14 01:20:53;;;;;;;;;;;;;;;;;;5089043;28;19912;-56
2022/06/14 01:23:21;;;;;;;;;;;;;;;;;;5089513;28;19916;-56
2022/06/14 01:25:48;;;;;;;;;;;;;;;;;;5089547;28;19926;-57
2022/06/14 01:31:30;;;;;;;;;;;;;;;;;;5067486;28;19917;-57
2022/06/14 01:33:59;;;;;;;;;;;;;;;;;;5067986;28;19909;-57
2022/06/14 01:36:39;;;;;;;;;;;;;;;;;;;;;
2022/06/14 01:44:49;;;;;;;;;;;;;;;;;;;;;
2022/06/14 01:47:24;;;;;;;;;;;;;;;;;;5089122;28;19944;-57
2022/06/14 01:58:18;;;;;;;;;;;;;;;;;;5089152;28;19916;-59
2022/06/14 02:00:57;;;;;;;;;;;;;;;;;;5088678;28;19915;-57
2022/06/14 02:06:27;;;;;;;;;;;;;;;;;;5089185;28;19950;-57
2022/06/14 02:08:56;;;;;;;;;;;;;;;;;;5088895;28;19943;-57
2022/06/14 02:11:25;;;;;;;;;;;;;;;;;;5088717;28;19908;-58
2022/06/14 02:16:38;;;;;;;;;;;;;;;;;;5088631;28;19990;-57
2022/06/14 02:19:10;;;;;;;;;;;;;;;;;;5086087;28;19916;-57
2022/06/14 02:21:43;;;;;;;;;;;;;;;;;;5088096;28;19913;-59
2022/06/14 02:24:33;;;;;;;;;;;;;;;;;;5088166;28;19916;-56
2022/06/14 02:29:46;;;;;;;;;;;;;;;;;;5083719;28;19916;-58
2022/06/14 02:35:04;;;;;;;;;;;;;;;;;;5088184;28;20346;-57
2022/06/14 02:37:48;;;;;;;;;;;;;;;;;;5065806;28;19909;-57
2022/06/14 02:43:20;;;;;;;;;;;;;;;;;;5066296;28;20012;-56
2022/06/14 02:48:46;;;;;;;;;;;;;;;;;;5006388;28;19921;-58
2022/06/14 02:51:25;;;;;;;;;;;;;;;;;;;;;
2022/06/14 02:56:51;;;;;;;;;;;;;;;;;;5066206;28;19939;-58
2022/06/14 03:02:04;;;;;;;;;;;;;;;;;;5058475;28;20362;-57
2022/06/14 03:07:19;;;;;;;;;;;;;;;;;;5058214;28;19909;-56
2022/06/14 03:09:48;;;;;;;;;;;;;;;;;;5087336;28;19988;-58
2022/06/14 03:12:33;;;;;;;;;;;;;;;;;;5087792;28;19934;-57
2022/06/14 03:20:59;;;;;;;;;;;;;;;;;;5080173;28;19904;-57
2022/06/14 03:23:28;;;;;;;;;;;;;;;;;;5086207;28;20369;-58
2022/06/14 03:25:54;;;;;;;;;;;;;;;;;;5088050;28;19950;-58
2022/06/14 03:28:21;;;;;;;;;;;;;;;;;;5087917;28;19975;-57
2022/06/14 03:30:50;;;;;;;;;;;;;;;;;;5085562;28;20262;-57
2022/06/14 03:33:16;;;;;;;;;;;;;;;;;;5073777;28;19909;-58
2022/06/14 03:38:30;;;;;;;;;;;;;;;;;;5073708;28;19908;-57
2022/06/14 03:41:06;;;;;;;;;;;;;;;;;;5075436;28;20361;-56
2022/06/14 03:43:38;;;;;;;;;;;;;;;;;;5077360;28;19944;-57
2022/06/14 03:46:18;;;;;;;;;;;;;;;;;;;;;
2022/06/14 03:49:02;;;;;;;;;;;;;;;;;;;;;
2022/06/14 03:51:32;;;;;;;;;;;;;;;;;;5078298;28;19908;-57
2022/06/14 03:54:01;;;;;;;;;;;;;;;;;;5078417;28;19999;-56
2022/06/14 03:59:14;;;;;;;;;;;;;;;;;;5077892;28;19930;-54
2022/06/14 04:04:55;;;;;;;;;;;;;;;;;;;;;
2022/06/14 04:07:30;;;;;;;;;;;;;;;;;;5073956;28;19908;-56
2022/06/14 04:10:17;;;;;;;;;;;;;;;;;;5077530;28;19920;-57
2022/06/14 04:15:47;;;;;;;;;;;;;;;;;;5016047;28;20007;-57
2022/06/14 04:21:01;;;;;;;;;;;;;;;;;;5077327;28;20404;-56
2022/06/14 04:23:33;;;;;;;;;;;;;;;;;;5077474;28;19944;-56
2022/06/14 04:25:59;;;;;;;;;;;;;;;;;;5035315;28;19905;-57
2022/06/14 04:31:38;;;;;;;;;;;;;;;;;;;;;
2022/06/14 04:36:54;;;;;;;;;;;;;;;;;;5021083;28;20318;-58
2022/06/14 04:39:30;;;;;;;;;;;;;;;;;;;;;
2022/06/14 04:44:45;;;;;;;;;;;;;;;;;;4972952;28;19910;-57
2022/06/14 04:47:14;;;;;;;;;;;;;;;;;;5030491;28;19949;-56
2022/06/14 04:49:46;;;;;;;;;;;;;;;;;;5033593;28;20351;-57
2022/06/14 04:52:12;;;;;;;;;;;;;;;;;;5024906;28;20367;-57
2022/06/14 04:54:57;;;;;;;;;;;;;;;;;;5040356;28;19960;-57
2022/06/14 04:57:32;;;;;;;;;;;;;;;;;;5082781;28;19912;-55
2022/06/14 05:03:18;;;;;;;;;;;;;;;;;;;;;
2022/06/14 05:06:07;;;;;;;;;;;;;;;;;;5094637;28;20280;-56
2022/06/14 05:14:43;;;;;;;;;;;;;;;;;;4995419;28;20273;-57
2022/06/14 05:20:14;;;;;;;;;;;;;;;;;;4987142;28;19910;-57
2022/06/14 05:22:52;;;;;;;;;;;;;;;;;;5048292;28;19909;-57
2022/06/14 05:25:18;;;;;;;;;;;;;;;;;;5097980;28;19908;-57
2022/06/14 05:27:47;;;;;;;;;;;;;;;;;;5096552;28;19914;-58
2022/06/14 05:30:28;;;;;;;;;;;;;;;;;;5096934;28;19927;-55
2022/06/14 05:35:39;;;;;;;;;;;;;;;;;;5095841;28;19931;-55
2022/06/14 05:38:05;;;;;;;;;;;;;;;;;;5089689;28;19908;-57
2022/06/14 05:40:42;;;;;;;;;;;;;;;;;;;;;
2022/06/14 05:46:01;;;;;;;;;;;;;;;;;;5056837;28;19908;-57
2022/06/14 05:48:45;;;;;;;;;;;;;;;;;;5095678;28;19908;-56
2022/06/14 05:57:00;;;;;;;;;;;;;;;;;;5095586;28;19947;-56
2022/06/14 05:59:32;;;;;;;;;;;;;;;;;;5076865;28;19915;-57
2022/06/14 06:02:06;;;;;;;;;;;;;;;;;;5072436;28;19915;-57
2022/06/14 06:04:46;;;;;;;;;;;;;;;;;;5095743;28;20257;-56
2022/06/14 06:10:04;;;;;;;;;;;;;;;;;;5090535;28;19916;-57
2022/06/14 06:12:35;;;;;;;;;;;;;;;;;;5077249;28;20360;-57
2022/06/14 06:15:17;;;;;;;;;;;;;;;;;;5095498;28;19999;-57
2022/06/14 06:18:11;;;;;;;;;;;;;;;;;;5096834;28;19915;-57
2022/06/14 06:20:44;;;;;;;;;;;;;;;;;;5095049;28;19953;-58
2022/06/14 06:23:25;;;;;;;;;;;;;;;;;;5070497;28;19942;-56
2022/06/14 06:25:54;;;;;;;;;;;;;;;;;;5096161;28;19904;-56
2022/06/14 06:28:32;;;;;;;;;;;;;;;;;;5095178;28;19950;-58
2022/06/14 06:31:13;;;;;;;;;;;;;;;;;;5095769;28;19916;-57
2022/06/14 06:33:40;;;;;;;;;;;;;;;;;;5094971;28;20369;-58
2022/06/14 06:36:09;;;;;;;;;;;;;;;;;;5076413;28;19915;-55
2022/06/14 06:38:46;;;;;;;;;;;;;;;;;;5095567;28;19913;-58
2022/06/14 06:44:00;;;;;;;;;;;;;;;;;;5095372;28;19915;-58
2022/06/14 06:46:34;;;;;;;;;;;;;;;;;;5076589;28;20254;-58
2022/06/14 06:51:55;;;;;;;;;;;;;;;;;;5096180;28;19915;-57
2022/06/14 06:54:29;;;;;;;;;;;;;;;;;;5095226;28;19908;-56
2022/06/14 06:57:07;;;;;;;;;;;;;;;;;;;;;
2022/06/14 06:59:45;;;;;;;;;;;;;;;;;;5094442;28;19980;-58
2022/06/14 07:05:14;;;;;;;;;;;;;;;;;;5075539;28;19912;-57
2022/06/14 07:07:49;;;;;;;;;;;;;;;;;;5094916;28;19969;-56
2022/06/14 07:10:19;;;;;;;;;;;;;;;;;;5080319;28;19916;-58
2022/06/14 07:15:40;;;;;;;;;;;;;;;;;;5085555;28;19912;-57
2022/06/14 07:18:08;;;;;;;;;;;;;;;;;;5100267;28;20230;-56
2022/06/14 07:20:44;;;;;;;;;;;;;;;;;;5080979;28;19912;-56
2022/06/14 07:23:21;;;;;;;;;;;;;;;;;;5095246;28;19908;-58
2022/06/14 07:25:49;;;;;;;;;;;;;;;;;;5099838;28;19916;-57
2022/06/14 07:28:18;;;;;;;;;;;;;;;;;;5099198;28;19908;-56
2022/06/14 07:30:49;;;;;;;;;;;;;;;;;;5099069;28;19917;-57
2022/06/14 07:33:17;;;;;;;;;;;;;;;;;;5098886;28;19908;-57
2022/06/14 07:35:50;;;;;;;;;;;;;;;;;;5080407;28;19965;-58
2022/06/14 07:38:26;;;;;;;;;;;;;;;;;;5080847;28;19930;-58
2022/06/14 07:46:35;;;;;;;;;;;;;;;;;;4996938;28;19910;-57
2022/06/14 07:49:18;;;;;;;;;;;;;;;;;;5074144;28;20350;-58
2022/06/14 07:51:47;;;;;;;;;;;;;;;;;;5085953;28;20006;-57
2022/06/14 07:54:26;;;;;;;;;;;;;;;;;;;;;
2022/06/14 07:56:53;;;;;;;;;;;;;;;;;;5095009;28;19918;-58
2022/06/14 07:59:21;;;;;;;;;;;;;;;;;;5097864;28;19915;-58
2022/06/14 08:01:50;;;;;;;;;;;;;;;;;;5078381;28;19914;-58
2022/06/14 08:07:01;;;;;;;;;;;;;;;;;;5097737;28;19915;-58
2022/06/14 08:09:28;;;;;;;;;;;;;;;;;;5078456;28;19916;-58
2022/06/14 08:14:49;;;;;;;;;;;;;;;;;;5093195;28;19931;-58
2022/06/14 08:17:24;;;;;;;;;;;;;;;;;;5078266;28;19909;-58
2022/06/14 08:19:52;;;;;;;;;;;;;;;;;;5086226;28;19987;-59
2022/06/14 08:22:24;;;;;;;;;;;;;;;;;;5097531;28;20007;-58
2022/06/14 08:24:53;;;;;;;;;;;;;;;;;;5097441;28;20274;-58
2022/06/14 08:28:03;;;;;;;;;;;;;;;;;;;;;
2022/06/14 08:30:26;;;;;;;;;;;;;;;;;;5086330;28;19917;-60
2022/06/14 08:33:00;;;;;;;;;;;;;;;;;;5055484;28;20262;-59
2022/06/14 08:35:35;;;;;;;;;;;;;;;;;;5054711;28;19956;-59
2022/06/14 08:38:13;;;;;;;;;;;;;;;;;;5055267;28;20295;-59
2022/06/14 08:40:54;;;;;;;;;;;;;;;;;;5054951;28;20406;-59
2022/06/14 08:43:34;;;;;;;;;;;;;;;;;;5039214;28;20394;-59
2022/06/14 08:46:11;;;;;;;;;;;;;;;;;;5055296;28;19909;-60
2022/06/14 08:48:48;;;;;;;;;;;;;;;;;;;;;
2022/06/14 08:51:30;;;;;;;;;;;;;;;;;;5052269;28;19915;-60
2022/06/14 08:56:45;;;;;;;;;;;;;;;;;;5054494;28;19996;-60
2022/06/14 09:05:10;;;;;;;;;;;;;;;;;;5024056;28;19915;-60
2022/06/14 09:16:01;;;;;;;;;;;;;;;;;;5054714;28;20011;-60
2022/06/14 09:21:23;;;;;;;;;;;;;;;;;;5050162;28;19908;-60
2022/06/14 09:23:52;;;;;;;;;;;;;;;;;;5014902;28;20296;-60
2022/06/14 09:26:26;;;;;;;;;;;;;;;;;;4997908;28;19953;-60
2022/06/14 09:31:44;;;;;;;;;;;;;;;;;;4993947;28;20319;-60
2022/06/14 09:36:55;;;;;;;;;;;;;;;;;;4994991;28;19968;-60
2022/06/14 09:42:19;;;;;;;;;;;;;;;;;;4982154;28;19914;-60
2022/06/14 09:44:51;;;;;;;;;;;;;;;;;;4979115;28;20311;-60
2022/06/14 09:50:22;;;;;;;;;;;;;;;;;;4971709;28;20020;-60
2022/06/14 09:52:54;;;;;;;;;;;;;;;;;;5008682;28;20477;-60
2022/06/14 09:58:29;;;;;;;;;;;;;;;;;;5080306;28;19955;-60
2022/06/14 10:01:08;;;;;;;;;;;;;;;;;;5096287;28;19912;-58
2022/06/14 10:03:42;;;;;;;;;;;;;;;;;;5077848;28;19908;-58
2022/06/14 10:06:14;;;;;;;;;;;;;;;;;;5079079;28;19930;-58
2022/06/14 10:09:03;;;;;;;;;;;;;;;;;;;;;
2022/06/14 10:11:37;;;;;;;;;;;;;;;;;;5095626;28;19914;-58
2022/06/14 10:23:11;;;;;;;;;;;;;;;;;;5094627;28;20433;-58
2022/06/14 10:28:11;;;;;;;;;;;;;;;;;;5076921;28;19908;-58
2022/06/14 10:28:28;;;;;;;;;;;;;;;;;;5093617;28;20053;-58
2022/06/14 10:31:03;;;;;;;;;;;;;;;;;;5094362;28;19916;-58
2022/06/14 10:33:43;;;;;;;;;;;;;;;;;;5076765;28;19909;-58
2022/06/14 10:36:30;;;;;;;;;;;;;;;;;;5076514;28;19908;-58
2022/06/14 10:39:22;;;;;;;;;;;;;;;;;;5094862;28;20002;-58
2022/06/14 10:42:06;;;;;;;;;;;;;;;;;;;;;
2022/06/14 10:47:43;;;;;;;;;;;;;;;;;;;;;
2022/06/14 10:50:15;;;;;;;;;;;;;;;;;;4993580;28;20299;-58
2022/06/14 10:52:53;;;;;;;;;;;;;;;;;;5075145;28;19912;-58
2022/06/14 10:55:37;;;;;;;;;;;;;;;;;;5074844;28;19920;-58
2022/06/14 11:00:50;;;;;;;;;;;;;;;;;;5052808;28;19916;-58
2022/06/14 11:03:20;;;;;;;;;;;;;;;;;;5052148;28;19932;-58
2022/06/14 11:05:48;;;;;;;;;;;;;;;;;;5033607;28;20366;-58
2022/06/14 11:11:31;;;;;;;;;;;;;;;;;;5008641;28;19917;-58
2022/06/14 11:14:13;;;;;;;;;;;;;;;;;;;;;
2022/06/14 11:16:44;;;;;;;;;;;;;;;;;;5049179;28;19919;-57
2022/06/14 11:24:45;;;;;;;;;;;;;;;;;;5052693;28;20028;-57
2022/06/14 11:27:14;;;;;;;;;;;;;;;;;;5052153;28;19913;-60
2022/06/14 11:29:50;;;;;;;;;;;;;;;;;;5066416;28;19920;-58
2022/06/14 11:35:17;;;;;;;;;;;;;;;;;;4992758;28;19910;-58
2022/06/14 11:38:01;;;;;;;;;;;;;;;;;;5073828;28;19967;-58
2022/06/14 11:40:33;;;;;;;;;;;;;;;;;;5076556;28;20357;-58
2022/06/14 11:43:02;;;;;;;;;;;;;;;;;;5094849;28;19908;-58
2022/06/14 11:45:32;;;;;;;;;;;;;;;;;;5094424;28;19908;-57
2022/06/14 11:48:24;;;;;;;;;;;;;;;;;;5095557;28;19951;-58
2022/06/14 11:50:50;;;;;;;;;;;;;;;;;;5094036;28;20015;-58
2022/06/14 11:56:06;;;;;;;;;;;;;;;;;;5097425;28;19973;-58
2022/06/14 11:58:42;;;;;;;;;;;;;;;;;;5099460;28;19950;-57
2022/06/14 12:01:08;;;;;;;;;;;;;;;;;;5098540;28;20412;-58
2022/06/14 12:03:34;;;;;;;;;;;;;;;;;;5099694;28;20285;-58
2022/06/14 12:14:42;;;;;;;;;;;;;;;;;;5084170;28;19931;-58
2022/06/14 12:20:09;;;;;;;;;;;;;;;;;;5088855;28;19931;-58
2022/06/14 12:22:56;;;;;;;;;;;;;;;;;;5097319;28;19908;-58
2022/06/14 12:28:08;;;;;;;;;;;;;;;;;;5097451;28;19915;-58
2022/06/14 12:30:41;;;;;;;;;;;;;;;;;;5054453;28;19921;-58
2022/06/14 12:33:10;;;;;;;;;;;;;;;;;;5035416;28;19916;-58
2022/06/14 12:35:52;;;;;;;;;;;;;;;;;;;;;
2022/06/14 12:38:40;;;;;;;;;;;;;;;;;;5052381;28;19909;-58
2022/06/14 12:44:01;;;;;;;;;;;;;;;;;;5054463;28;19959;-58
2022/06/14 12:49:31;;;;;;;;;;;;;;;;;;5054378;28;19951;-58
2022/06/14 12:52:15;;;;;;;;;;;;;;;;;;5055439;28;19935;-58
2022/06/14 12:54:43;;;;;;;;;;;;;;;;;;5053855;28;19909;-58
2022/06/14 12:57:27;;;;;;;;;;;;;;;;;;5020845;28;19921;-58
2022/06/14 13:00:02;;;;;;;;;;;;;;;;;;5023498;28;20369;-58
2022/06/14 13:02:47;;;;;;;;;;;;;;;;;;;;;
2022/06/14 13:05:22;;;;;;;;;;;;;;;;;;5031930;28;19916;-58
2022/06/14 13:07:57;;;;;;;;;;;;;;;;;;5050487;28;20277;-58
2022/06/14 13:10:28;;;;;;;;;;;;;;;;;;5058072;28;19963;-58
2022/06/14 13:12:55;;;;;;;;;;;;;;;;;;5077130;28;19909;-58
2022/06/14 13:15:21;;;;;;;;;;;;;;;;;;5075662;28;19970;-58
2022/06/14 13:17:49;;;;;;;;;;;;;;;;;;5057912;28;19977;-58
2022/06/14 13:20:30;;;;;;;;;;;;;;;;;;5024681;28;20245;-58
2022/06/14 13:23:00;;;;;;;;;;;;;;;;;;5058427;28;19909;-58
2022/06/14 13:25:38;;;;;;;;;;;;;;;;;;5058424;28;19942;-58
2022/06/14 13:28:13;;;;;;;;;;;;;;;;;;5076635;28;19931;-58
2022/06/14 13:33:27;;;;;;;;;;;;;;;;;;5075905;28;19938;-58
2022/06/14 13:36:12;;;;;;;;;;;;;;;;;;5058420;28;19908;-58
2022/06/14 13:38:50;;;;;;;;;;;;;;;;;;5077049;28;19916;-58
2022/06/14 13:41:25;;;;;;;;;;;;;;;;;;5057761;28;19959;-58
2022/06/14 13:43:51;;;;;;;;;;;;;;;;;;5077221;28;19908;-58
2022/06/14 13:49:25;;;;;;;;;;;;;;;;;;5013216;28;19968;-58
2022/06/14 13:54:58;;;;;;;;;;;;;;;;;;5002903;28;19915;-58
2022/06/14 13:57:26;;;;;;;;;;;;;;;;;;5031262;28;19921;-58
2022/06/14 14:00:14;;;;;;;;;;;;;;;;;;5033326;28;19963;-58
2022/06/14 14:02:49;;;;;;;;;;;;;;;;;;;;;
2022/06/14 14:08:01;;;;;;;;;;;;;;;;;;5033847;28;20365;-58
2022/06/14 14:13:13;;;;;;;;;;;;;;;;;;5033680;28;19921;-58
2022/06/14 14:15:51;;;;;;;;;;;;;;;;;;5033667;28;19948;-58
2022/06/14 14:18:22;;;;;;;;;;;;;;;;;;5038245;28;19909;-58
2022/06/14 14:20:58;;;;;;;;;;;;;;;;;;5069406;28;19936;-58
2022/06/14 14:23:36;;;;;;;;;;;;;;;;;;5057464;28;19908;-58
2022/06/14 14:26:05;;;;;;;;;;;;;;;;;;5075236;28;20652;-58
2022/06/14 14:28:34;;;;;;;;;;;;;;;;;;5075686;28;19991;-58
2022/06/14 14:31:00;;;;;;;;;;;;;;;;;;5058448;28;20418;-58
2022/06/14 14:33:32;;;;;;;;;;;;;;;;;;5074993;28;19951;-58
2022/06/14 14:38:42;;;;;;;;;;;;;;;;;;5074515;28;19926;-58
2022/06/14 14:43:55;;;;;;;;;;;;;;;;;;5074385;28;19967;-58
2022/06/14 14:46:25;;;;;;;;;;;;;;;;;;5074089;28;19913;-58
2022/06/14 14:49:02;;;;;;;;;;;;;;;;;;5074322;28;20331;-58
2022/06/14 14:54:14;;;;;;;;;;;;;;;;;;5074562;28;19915;-58
2022/06/14 14:56:40;;;;;;;;;;;;;;;;;;5063000;28;19927;-58
2022/06/14 14:59:15;;;;;;;;;;;;;;;;;;5094791;28;19908;-60
2022/06/14 15:07:11;;;;;;;;;;;;;;;;;;5094749;28;20033;-58
2022/06/14 15:09:43;;;;;;;;;;;;;;;;;;5075967;28;20348;-58
2022/06/14 15:12:12;;;;;;;;;;;;;;;;;;5094560;28;19961;-58
2022/06/14 15:14:48;;;;;;;;;;;;;;;;;;;;;
2022/06/14 15:20:05;;;;;;;;;;;;;;;;;;5094651;28;19914;-58
2022/06/14 15:23:14;;;;;;;;;;;;;;;;;;;;;
2022/06/14 15:25:23;;;;;;;;;;;;;;;;;;5084143;28;19908;-58
2022/06/14 15:27:49;;;;;;;;;;;;;;;;;;5094470;28;19930;-58
2022/06/14 15:30:18;;;;;;;;;;;;;;;;;;5096865;28;20003;-58
2022/06/14 15:35:57;;;;;;;;;;;;;;;;;;5098973;28;19938;-58
2022/06/14 15:41:33;;;;;;;;;;;;;;;;;;5094444;28;20254;-58
2022/06/14 15:44:20;;;;;;;;;;;;;;;;;;5099061;28;19931;-58
2022/06/14 15:46:56;;;;;;;;;;;;;;;;;;;;;
2022/06/14 15:49:23;;;;;;;;;;;;;;;;;;5090230;28;19916;-58
2022/06/14 15:51:52;;;;;;;;;;;;;;;;;;5099027;28;19908;-58
2022/06/14 16:00:08;;;;;;;;;;;;;;;;;;5078575;28;19908;-58
2022/06/14 16:02:46;;;;;;;;;;;;;;;;;;5059979;28;19952;-58
2022/06/14 16:05:22;;;;;;;;;;;;;;;;;;5059194;28;19909;-58
2022/06/14 16:13:31;;;;;;;;;;;;;;;;;;5077667;28;19954;-58
2022/06/14 16:15:57;;;;;;;;;;;;;;;;;;5078408;28;20306;-58
2022/06/14 16:18:37;;;;;;;;;;;;;;;;;;5078208;28;19908;-58
2022/06/14 16:21:05;;;;;;;;;;;;;;;;;;5035423;28;19909;-59
2022/06/14 16:23:35;;;;;;;;;;;;;;;;;;5036030;28;19962;-59
2022/06/14 16:28:46;;;;;;;;;;;;;;;;;;5035449;28;19967;-59
2022/06/14 16:31:17;;;;;;;;;;;;;;;;;;5035022;28;19917;-59
2022/06/14 16:33:43;;;;;;;;;;;;;;;;;;5034369;28;19947;-59
2022/06/14 16:36:18;;;;;;;;;;;;;;;;;;5035256;28;20619;-59
2022/06/14 16:38:53;;;;;;;;;;;;;;;;;;5037176;28;19916;-59
2022/06/14 16:41:21;;;;;;;;;;;;;;;;;;5032814;28;19909;-59
2022/06/14 16:43:47;;;;;;;;;;;;;;;;;;5034626;28;19917;-59
2022/06/14 16:46:15;;;;;;;;;;;;;;;;;;5066427;28;20350;-59
2022/06/14 16:48:45;;;;;;;;;;;;;;;;;;5058773;28;20375;-59
2022/06/14 16:54:15;;;;;;;;;;;;;;;;;;5076228;28;19909;-59
2022/06/14 16:56:41;;;;;;;;;;;;;;;;;;5065591;28;20305;-59
2022/06/14 16:59:23;;;;;;;;;;;;;;;;;;;;;
2022/06/14 17:01:58;;;;;;;;;;;;;;;;;;5077041;28;20362;-59
2022/06/14 17:04:33;;;;;;;;;;;;;;;;;;5077260;28;20276;-58
2022/06/14 17:07:03;;;;;;;;;;;;;;;;;;5077259;28;19908;-59
2022/06/14 17:09:32;;;;;;;;;;;;;;;;;;5069355;28;20336;-59
2022/06/14 17:12:11;;;;;;;;;;;;;;;;;;;;;
2022/06/14 17:14:37;;;;;;;;;;;;;;;;;;5076015;28;19912;-59
2022/06/14 17:17:03;;;;;;;;;;;;;;;;;;5076658;28;19948;-59
2022/06/14 17:19:51;;;;;;;;;;;;;;;;;;5076217;28;19915;-59
2022/06/14 17:31:00;;;;;;;;;;;;;;;;;;;;;
2022/06/14 17:33:29;;;;;;;;;;;;;;;;;;5049086;28;20373;-59
2022/06/14 17:35:57;;;;;;;;;;;;;;;;;;5068776;28;19909;-59
2022/06/14 17:38:23;;;;;;;;;;;;;;;;;;5076199;28;20342;-59
2022/06/14 17:40:55;;;;;;;;;;;;;;;;;;5075615;28;19980;-59
2022/06/14 17:43:40;;;;;;;;;;;;;;;;;;;;;
2022/06/14 17:46:18;;;;;;;;;;;;;;;;;;5076478;28;20266;-59
2022/06/14 17:48:59;;;;;;;;;;;;;;;;;;5067751;28;19935;-59
2022/06/14 17:51:29;;;;;;;;;;;;;;;;;;5075601;28;20309;-59
2022/06/14 17:53:58;;;;;;;;;;;;;;;;;;5075701;28;19908;-59
2022/06/14 17:56:34;;;;;;;;;;;;;;;;;;;;;
2022/06/14 17:59:20;;;;;;;;;;;;;;;;;;5080673;28;20358;-59
2022/06/14 18:01:46;;;;;;;;;;;;;;;;;;5094775;28;20323;-59
2022/06/14 18:04:30;;;;;;;;;;;;;;;;;;5093572;28;19912;-59
2022/06/14 18:07:06;;;;;;;;;;;;;;;;;;;;;
2022/06/14 18:09:47;;;;;;;;;;;;;;;;;;5092960;28;19920;-58
2022/06/14 18:12:31;;;;;;;;;;;;;;;;;;5095909;28;19914;-59
2022/06/14 18:15:10;;;;;;;;;;;;;;;;;;5074724;28;20346;-59
2022/06/14 18:17:36;;;;;;;;;;;;;;;;;;5095594;28;19916;-59
2022/06/14 18:31:21;;;;;;;;;;;;;;;;;;5090758;28;19965;-59
2022/06/14 18:34:15;;;;;;;;;;;;;;;;;;5080298;28;21971;-59
2022/06/14 18:39:56;;;;;;;;;;;;;;;;;;5096559;28;19912;-59
2022/06/14 18:42:35;;;;;;;;;;;;;;;;;;;;;
2022/06/14 18:47:48;;;;;;;;;;;;;;;;;;5095700;28;20304;-59
2022/06/14 18:50:20;;;;;;;;;;;;;;;;;;5094383;28;19967;-59
2022/06/14 18:52:48;;;;;;;;;;;;;;;;;;5095164;28;19931;-59
2022/06/14 18:55:33;;;;;;;;;;;;;;;;;;5076307;28;20361;-59
2022/06/14 18:57:59;;;;;;;;;;;;;;;;;;5094095;28;19920;-59
2022/06/14 19:00:28;;;;;;;;;;;;;;;;;;5095283;28;19994;-59
2022/06/14 19:08:35;;;;;;;;;;;;;;;;;;5076711;28;19908;-59
2022/06/14 19:11:02;;;;;;;;;;;;;;;;;;5094562;28;19920;-59
2022/06/14 19:16:35;;;;;;;;;;;;;;;;;;5072086;28;20331;-59
2022/06/14 19:19:19;;;;;;;;;;;;;;;;;;5073611;28;19977;-59
2022/06/14 19:21:47;;;;;;;;;;;;;;;;;;5075690;28;20357;-59
2022/06/14 19:24:17;;;;;;;;;;;;;;;;;;5076989;28;19908;-59
2022/06/14 19:26:46;;;;;;;;;;;;;;;;;;5095030;28;19908;-59
2022/06/14 19:40:14;;;;;;;;;;;;;;;;;;5094738;28;20249;-59
2022/06/14 19:45:42;;;;;;;;;;;;;;;;;;;;;
2022/06/14 19:51:08;;;;;;;;;;;;;;;;;;;;;
2022/06/14 19:53:37;;;;;;;;;;;;;;;;;;5090582;28;19908;-59
2022/06/14 19:58:49;;;;;;;;;;;;;;;;;;5094105;28;19927;-59
2022/06/14 20:04:13;;;;;;;;;;;;;;;;;;5093681;28;20362;-58
2022/06/14 20:07:07;;;;;;;;;;;;;;;;;;;;;
2022/06/14 20:09:37;;;;;;;;;;;;;;;;;;5091604;28;19916;-59
2022/06/14 20:12:07;;;;;;;;;;;;;;;;;;5095336;28;20403;-58
2022/06/14 20:26:15;;;;;;;;;;;;;;;;;;;;;
2022/06/14 20:28:33;;;;;;;;;;;;;;;;;;5091140;28;20274;-59
2022/06/14 20:31:12;;;;;;;;;;;;;;;;;;;;;
2022/06/14 20:36:34;;;;;;;;;;;;;;;;;;5075764;28;19919;-59
2022/06/14 20:42:06;;;;;;;;;;;;;;;;;;;;;
2022/06/14 20:44:34;;;;;;;;;;;;;;;;;;5068822;28;20011;-59
2022/06/14 20:47:06;;;;;;;;;;;;;;;;;;5098484;28;20254;-59
2022/06/14 20:49:35;;;;;;;;;;;;;;;;;;5097883;28;19984;-59
2022/06/14 20:54:54;;;;;;;;;;;;;;;;;;5098093;28;20002;-58
2022/06/14 20:57:36;;;;;;;;;;;;;;;;;;;;;
2022/06/14 21:00:04;;;;;;;;;;;;;;;;;;5092999;28;19908;-58
2022/06/14 21:05:29;;;;;;;;;;;;;;;;;;5087703;28;19908;-59
2022/06/14 21:08:00;;;;;;;;;;;;;;;;;;5101015;28;19999;-58
2022/06/14 21:13:18;;;;;;;;;;;;;;;;;;5101516;28;20439;-59
2022/06/14 21:15:56;;;;;;;;;;;;;;;;;;5101185;28;20012;-59
2022/06/14 21:18:22;;;;;;;;;;;;;;;;;;5102616;28;19912;-59
2022/06/14 21:21:04;;;;;;;;;;;;;;;;;;5102704;28;19930;-58
2022/06/14 21:26:34;;;;;;;;;;;;;;;;;;5103128;28;20330;-58
2022/06/14 21:32:07;;;;;;;;;;;;;;;;;;5051838;28;19916;-59
2022/06/14 21:34:50;;;;;;;;;;;;;;;;;;5102863;28;20362;-58
2022/06/14 21:40:34;;;;;;;;;;;;;;;;;;4982226;28;19911;-58
2022/06/14 21:43:03;;;;;;;;;;;;;;;;;;4982218;28;20399;-60
2022/06/14 21:45:40;;;;;;;;;;;;;;;;;;4982327;28;19910;-59
2022/06/14 21:48:09;;;;;;;;;;;;;;;;;;4965407;28;19980;-59
2022/06/14 21:50:45;;;;;;;;;;;;;;;;;;4965833;28;19918;-59
2022/06/14 21:56:12;;;;;;;;;;;;;;;;;;4925390;29;19907;-60
2022/06/14 21:58:38;;;;;;;;;;;;;;;;;;4973229;28;19950;-60
2022/06/14 22:01:05;;;;;;;;;;;;;;;;;;4965702;28;19986;-59
2022/06/14 22:06:41;;;;;;;;;;;;;;;;;;4950858;28;19941;-59
2022/06/14 22:09:20;;;;;;;;;;;;;;;;;;4998029;28;19913;-59
2022/06/14 22:11:52;;;;;;;;;;;;;;;;;;5004056;28;19925;-59
2022/06/14 22:17:15;;;;;;;;;;;;;;;;;;5006825;28;19910;-59
2022/06/14 22:33:53;;;;;;;;;;;;;;;;;;5001524;28;20361;-59
2022/06/14 22:36:22;;;;;;;;;;;;;;;;;;5000352;28;19916;-59
2022/06/14 22:38:52;;;;;;;;;;;;;;;;;;5071804;28;19908;-59
2022/06/14 22:41:21;;;;;;;;;;;;;;;;;;5082043;28;19908;-59
2022/06/14 22:46:34;;;;;;;;;;;;;;;;;;5082738;28;20395;-59
2022/06/14 22:52:05;;;;;;;;;;;;;;;;;;5078171;28;19925;-59
2022/06/14 22:54:32;;;;;;;;;;;;;;;;;;5081812;28;19919;-59
2022/06/14 22:57:12;;;;;;;;;;;;;;;;;;5080783;28;19909;-59
2022/06/14 22:59:57;;;;;;;;;;;;;;;;;;5098480;28;19920;-58
2022/06/14 23:02:26;;;;;;;;;;;;;;;;;;5102737;28;19908;-59
2022/06/14 23:04:54;;;;;;;;;;;;;;;;;;5102404;28;19913;-59
2022/06/14 23:07:24;;;;;;;;;;;;;;;;;;5102360;28;19970;-59
2022/06/14 23:10:05;;;;;;;;;;;;;;;;;;5102201;28;19923;-58
2022/06/14 23:12:35;;;;;;;;;;;;;;;;;;5102658;28;19919;-59
2022/06/14 23:15:01;;;;;;;;;;;;;;;;;;5084001;28;19920;-59
2022/06/14 23:17:29;;;;;;;;;;;;;;;;;;5101819;28;19908;-59
2022/06/14 23:19:59;;;;;;;;;;;;;;;;;;5102837;28;19971;-59
2022/06/14 23:22:34;;;;;;;;;;;;;;;;;;5102657;28;19908;-59
2022/06/14 23:25:18;;;;;;;;;;;;;;;;;;5102917;28;19958;-59
2022/06/14 23:28:04;;;;;;;;;;;;;;;;;;5102767;28;19908;-58
2022/06/14 23:33:19;;;;;;;;;;;;;;;;;;5101251;28;19959;-59
2022/06/14 23:35:48;;;;;;;;;;;;;;;;;;5104193;28;19919;-59
2022/06/14 23:38:14;;;;;;;;;;;;;;;;;;5103753;28;19998;-58
2022/06/14 23:40:40;;;;;;;;;;;;;;;;;;5084837;28;20303;-59
2022/06/14 23:51:36;;;;;;;;;;;;;;;;;;5059860;28;19937;-58
2022/06/14 23:57:08;;;;;;;;;;;;;;;;;;5087600;28;19916;-59
2022/06/14 23:59:40;;;;;;;;;;;;;;;;;;5108180;28;19927;-59
